Crystal Springs, North Dakota
Current Conditions -  °F | °C
As of 4:56 PM on Saturday 20 Dec 2014 (Local Time) from KJMS Reporting Station
Haze Haze  
Wind Chill: -6°   Ceiling: 600
Heat Index: -1°   Visibility: 6mi
Dew Point: -3°   Wind: 12mph
Humidity: 85%   Direction: 170°S
Pressure: 29.85"   Gusts: NA
Location:  46.8928°N, 99.3208°W
Report Text: KJMS 202256Z AUTO 17010KT 6SM BR OVC006 M01/M03 A2985 RMK AO2 SLP131 T10111033
Loading
Personal Weather Stations






























Interactive Weather Map New forecast layout! Learn more

10-Day Weather Forecast

Advertisements
Track Severe Weather on mobile